• Join FlightAware (Why Join?)
  • Login
  • US Flag 
10:27PM EDT


 

Airport Tracker/Info


-or-


 

Live Flight TrackerFlight Track Log ✈ N21921 ✈ 05-Jul-2013 ✈ KSLK - KAKR

Flight Track Log - Related Links

Times and Time Zones

All times are in EDT time to prevent confusion due to time zone crossing. See the N21921 flight status page for this flight to view local times or setup timezone preferences in your user account.

Time Position Orientation Groundspeed Altitude Reporting Facility
EDT Latitude Longitude Course Direction KTS MPH feet Rate Location/Type
12:29PM 44.3264 -74.3669 241° Southwest 209 241 4,400  Level Boston Center
12:30PM 44.3089 -74.4128 242° Southwest 164 189 5,200 840 Climbing Boston Center
12:31PM 44.2917 -74.4528 239° Southwest 133 153 6,100 900 Climbing Boston Center
12:32PM 44.2764 -74.4931 242° Southwest 128 147 7,100 900 Climbing Boston Center
12:33PM 44.2589 -74.5358 240° Southwest 128 147 7,900 720 Climbing Boston Center
12:34PM 44.2503 -74.4995 235° Southwest  Level FlightAware Approximate
12:34PM 44.2436 -74.5789 244° Southwest 128 147 8,600  Level Boston Center
12:35PM 44.2256 -74.5611 241° Southwest  Level FlightAware Approximate
12:35PM 44.2239 -74.6217 237° Southwest 128 147 9,200  Level Boston Center
12:36PM 44.2064 -74.6644 240° Southwest 128 147 9,700 420 Climbing Boston Center
12:37PM 44.1889 -74.7100 242° Southwest 133 153 10,100 120 Climbing Boston Center
12:38PM 44.1669 -74.7642 241° Southwest 138 159 10,000 -60 Descending Boston Center
12:39PM 44.1597 -74.8131 258° West 175 201 10,000  Level Boston Center
12:40PM 44.1378 -74.8700 242° Southwest 171 197 10,000  Level Boston Center
12:41PM 44.1136 -74.9269 239° Southwest 169 194 10,000  Level Boston Center
12:42PM 44.0872 -74.9836 237° Southwest 169 194 10,000  Level Boston Center
12:43PM 44.0506 -75.0458 231° Southwest 175 201 10,000  Level Boston Center
12:44PM 44.0369 -75.0972 250° West 172 198 10,000  Level Boston Center
12:45PM 44.0125 -75.1539 239° Southwest 170 196 10,000  Level Boston Center
12:46PM 43.9903 -75.2106 241° Southwest 169 194 10,000  Level Boston Center
12:47PM 43.9619 -75.2669 235° Southwest 171 197 10,000  Level Boston Center
12:48PM 43.9375 -75.3233 239° Southwest 172 198 10,000  Level Boston Center
12:49PM 43.9153 -75.3800 241° Southwest 172 198 10,000  Level Boston Center
12:50PM 43.8886 -75.4392 238° Southwest 172 198 10,000  Level Boston Center
12:51PM 43.8622 -75.4925 236° Southwest 171 197 10,000  Level Boston Center
12:52PM 43.8333 -75.5603 239° Southwest 172 198 10,000  Level Boston Center
12:53PM 43.8131 -75.6197 245° Southwest 180 207 10,000  Level Boston Center
12:55PM 43.7775 -75.6953 237° Southwest 173 199 10,000  Level Boston Center
12:56PM 43.7531 -75.7517 239° Southwest 172 198 10,000  Level Boston Center
12:57PM 43.7306 -75.8078 241° Southwest 172 198 10,000  Level Boston Center
12:58PM 43.7039 -75.8667 238° Southwest 172 198 10,000  Level Boston Center
12:59PM 43.6792 -75.9256 240° Southwest 170 196 10,000  Level Boston Center
01:00PM 43.6525 -75.9786 235° Southwest 170 196 10,000  Level Boston Center
01:01PM 43.6297 -76.0375 242° Southwest 171 197 10,000  Level Boston Center
01:02PM 43.6050 -76.0933 239° Southwest 172 198 10,000  Level Boston Center
01:03PM 43.5803 -76.1464 237° Southwest 171 197 10,000  Level Boston Center
01:04PM 43.5578 -76.2022 241° Southwest 171 197 10,000  Level Boston Center
01:05PM 43.5283 -76.2664 238° Southwest 174 200 10,000  Level Boston Center
01:06PM 43.5058 -76.3222 241° Southwest 174 200 10,000  Level Boston Center
01:07PM 43.4808 -76.3808 240° Southwest 175 201 10,000 -60 Level Boston Center
01:08PM 43.4539 -76.4333 235° Southwest 170 196 9,900  Descending Boston Center
01:09PM 43.4289 -76.4917 239° Southwest 173 199 10,000  Climbing Boston Center
01:10PM 43.4061 -76.5475 241° Southwest 172 198 10,000  Level Boston Center
01:11PM 43.3811 -76.6058 239° Southwest 173 199 10,000  Level Boston Center
01:12PM 43.3528 -76.6686 238° Southwest 175 201 10,000  Level Cleveland Center
01:13PM 43.3256 -76.7275 238° Southwest 174 200 10,000  Level Cleveland Center
01:14PM 43.3003 -76.7861 239° Southwest 176 203 10,000  Level Cleveland Center
01:15PM 43.2731 -76.8450 238° Southwest 170 196 10,000  Level Cleveland Center
01:16PM 43.2536 -76.8889 239° Southwest 168 193 10,000  Level Cleveland Center
01:17PM 43.2283 -76.9417 237° Southwest 168 193 10,000  Level Cleveland Center
01:18PM 43.1992 -77.0089 239° Southwest 167 192 10,000  Level Cleveland Center
01:19PM 43.1778 -77.0614 241° Southwest 169 194 10,000  Level Cleveland Center
01:20PM 43.1525 -77.1169 238° Southwest 171 197 10,000  Level Cleveland Center
01:21PM 43.1247 -77.1725 236° Southwest 171 197 10,000  Level Cleveland Center
01:22PM 43.1014 -77.2278 240° Southwest 173 199 10,000  Level Cleveland Center
01:23PM 43.0758 -77.2833 238° Southwest 170 196 10,000  Level Cleveland Center
01:24PM 43.0483 -77.3414 237° Southwest 168 193 10,000  Level Cleveland Center
01:25PM 43.0267 -77.3881 238° Southwest 171 197 10,000  Level Cleveland Center
01:26PM 43.0033 -77.4433 240° Southwest 171 197 10,000 -60 Level Cleveland Center
01:27PM 42.9756 -77.5014 237° Southwest 170 196 9,900  Descending Cleveland Center
01:28PM 42.9500 -77.5567 238° Southwest 169 194 10,000  Climbing Cleveland Center
01:29PM 42.9264 -77.6089 238° Southwest 169 194 10,000  Level Cleveland Center
01:30PM 42.9008 -77.6667 239° Southwest 172 198 10,000  Level Cleveland Center
01:31PM 42.8750 -77.7189 236° Southwest 171 197 10,000  Level Cleveland Center
01:32PM 42.8492 -77.7739 237° Southwest 170 196 10,000  Level Cleveland Center
01:33PM 42.8256 -77.8317 241° Southwest 168 193 10,000  Level Cleveland Center
01:35PM 42.7833 -77.9333 241° Southwest 167 192 10,000  Level Buffalo TRACON
01:36PM 42.7500 -77.9833 228° Southwest 169 194 10,000  Level Buffalo TRACON
01:37PM 42.7333 -78.0333 246° West 169 194 10,000  Level Buffalo TRACON
01:38PM 42.7000 -78.0833 228° Southwest 166 191 10,000  Level Buffalo TRACON
01:39PM 42.6833 -78.1333 246° West 164 189 10,000  Level Buffalo TRACON
01:40PM 42.6500 -78.2000 236° Southwest 165 190 10,000  Level Buffalo TRACON
01:41PM 42.6333 -78.2500 246° West 161 185 10,000  Level Buffalo TRACON
01:42PM 42.6167 -78.3000 246° West 165 190 10,000  Level Buffalo TRACON
01:43PM 42.5833 -78.3500 228° Southwest 164 189 10,000  Level Buffalo TRACON
01:44PM 42.5667 -78.4000 246° West 166 191 10,000  Level Buffalo TRACON
01:45PM 42.5136 -78.4536 217° Southwest 186 214 10,000 -60 Level Cleveland Center
01:46PM 42.4789 -78.4914 219° Southwest 186 214 9,900 -60 Descending Cleveland Center
01:47PM 42.4419 -78.5292 217° Southwest 176 203 9,900  Level Cleveland Center
01:48PM 42.4072 -78.5669 219° Southwest 171 197 10,000  Climbing Cleveland Center
01:49PM 42.3703 -78.6019 215° Southwest 171 197 10,000  Level Cleveland Center
01:50PM 42.3333 -78.6422 219° Southwest 171 197 10,000  Level Cleveland Center
01:51PM 42.3050 -78.6908 232° Southwest 171 197 10,000 -60 Level Cleveland Center
01:52PM 42.2767 -78.7422 233° Southwest 171 197 9,900  Descending Cleveland Center
01:53PM 42.2547 -78.7961 241° Southwest 171 197 10,000  Climbing Cleveland Center
01:54PM 42.2325 -78.8500 241° Southwest 171 197 10,000  Level Cleveland Center
01:55PM 42.2103 -78.9039 241° Southwest 171 197 10,000 -60 Level Cleveland Center
01:56PM 42.1842 -78.9636 239° Southwest 177 204 9,900  Descending Cleveland Center
01:57PM 42.1600 -79.0231 241° Southwest 171 197 10,000  Climbing Cleveland Center
01:58PM 42.1336 -79.0769 237° Southwest 171 197 10,000 -60 Level Cleveland Center
01:59PM 42.1114 -79.1333 242° Southwest 168 193 9,900  Descending Cleveland Center
02:00PM 42.0889 -79.1814 238° Southwest 173 199 10,000  Climbing Cleveland Center
02:01PM 42.0625 -79.2406 239° Southwest 173 199 9,900  Descending Cleveland Center
02:02PM 42.0403 -79.2942 241° Southwest 173 199 10,000  Climbing Cleveland Center
02:03PM 42.0139 -79.3481 237° Southwest 173 199 10,000  Level Cleveland Center
02:04PM 41.9936 -79.3986 242° Southwest 168 193 10,000  Level Cleveland Center
02:06PM 41.9627 -79.4701 240° Southwest  Level FlightAware Approximate
02:13PM 41.7931 -79.8590 240° Southwest  Level FlightAware Approximate
02:14PM 41.7688 -79.9144 240° Southwest  Level FlightAware Approximate
02:15PM 41.7444 -79.9697 239° Southwest  Level FlightAware Approximate
02:16PM 41.7201 -80.0250 239° Southwest  Level FlightAware Approximate
02:17PM 41.6957 -80.0802 239° Southwest  Level FlightAware Approximate
02:18PM 41.6712 -80.1355 239° Southwest  Level FlightAware Approximate
02:19PM 41.6460 -80.1919 238° Southwest  Level FlightAware Approximate
02:20PM 41.6207 -80.2463 238° Southwest  Level FlightAware Approximate
02:21PM 41.5953 -80.3007 238° Southwest  Level FlightAware Approximate
02:22PM 41.5700 -80.3551 238° Southwest  Level FlightAware Approximate
02:23PM 41.5445 -80.4094 238° Southwest  Level FlightAware Approximate
02:24PM 41.5185 -80.4631 236° Southwest  Level FlightAware Approximate
02:25PM 41.4921 -80.5163 236° Southwest  Level FlightAware Approximate
02:26PM 41.4657 -80.5694 236° Southwest  Level FlightAware Approximate
02:27PM 41.4393 -80.6224 236° Southwest  Level FlightAware Approximate
02:28PM 41.4128 -80.6754 236° Southwest  Level FlightAware Approximate
02:29PM 41.3863 -80.7284 236° Southwest  Level FlightAware Approximate
02:30PM 41.3599 -80.7813 236° Southwest  Level FlightAware Approximate
02:31PM 41.3333 -80.8342 236° Southwest  Level FlightAware Approximate
02:32PM 41.3068 -80.8870 236° Southwest  Level FlightAware Approximate
02:33PM 41.2802 -80.9398 236° Southwest  Level FlightAware Approximate
02:34PM 41.2599 -80.9947 231° Southwest  Level FlightAware Approximate
02:35PM 41.2301 -81.0443 231° Southwest  Level FlightAware Approximate
02:36PM 41.2060 -81.0985 246° West  Level FlightAware Approximate
02:37PM 41.1818 -81.1530 236° Southwest  Level FlightAware Approximate
02:38PM 41.1620 -81.2083 233° Southwest  Level FlightAware Approximate
02:39PM 41.1332 -81.2588 233° Southwest  Level FlightAware Approximate
02:40PM 41.1043 -81.3093 233° Southwest  Level FlightAware Approximate
02:41PM 41.0755 -81.3598 233° Southwest  Level FlightAware Approximate
02:42PM 41.0466 -81.4102 233° Southwest  Level FlightAware Approximate
02:43PM 41.0333 -81.4667 270° West  Level FlightAware Approximate
02:44PM 41.0375 -81.4669 270° West  Level Estimated
02:45PM 41.0333 -81.4667 270° West  Level FlightAware Approximate